Time;durP1;ratioP1;P1;durP2;ratioP2;P2;SDS_P1;SDS_P2;PMS_P1;PMS_P2;Temp;Humidity;BMP_temperature;BMP_pressure;BME280_temperature;BME280_humidity;BME280_pressure;Samples;Min_cycle;Max_cycle;Signal;HPM_P1;HPM_P2
2023/02/15 00:00:12;;;;;;;38.13;31.23;;;;;;;;;;514737;28;1708;-73
2023/02/15 00:00:28;;;;;;;38.20;31.25;;;;;;;;;;516827;28;1216;-73
2023/02/15 00:00:43;;;;;;;37.20;30.87;;;;;;;;;;518206;28;1318;-73
2023/02/15 00:01:09;;;;;;;37.33;31.00;;;;;;;;;;517523;28;1226;-73
2023/02/15 00:01:24;;;;;;;40.97;32.35;;;;;;;;;;516935;28;1384;-74
2023/02/15 00:01:40;;;;;;;42.40;33.38;;;;;;;;;;517485;28;1374;-73
2023/02/15 00:01:55;;;;;;;41.35;33.00;;;;;;;;;;520405;28;1511;-74
2023/02/15 00:02:10;;;;;;;40.03;32.43;;;;;;;;;;521594;28;1426;-72
2023/02/15 00:02:26;;;;;;;41.37;33.20;;;;;;;;;;516942;28;1319;-73
2023/02/15 00:02:41;;;;;;;41.53;32.60;;;;;;;;;;519397;28;1321;-72
2023/02/15 00:02:56;;;;;;;39.83;31.40;;;;;;;;;;517383;28;1157;-73
2023/02/15 00:03:12;;;;;;;40.40;32.00;;;;;;;;;;516740;28;1456;-72
2023/02/15 00:03:27;;;;;;;40.38;31.83;;;;;;;;;;516489;28;1267;-73
2023/02/15 00:03:42;;;;;;;39.60;31.47;;;;;;;;;;515946;28;1286;-73
2023/02/15 00:03:58;;;;;;;39.33;31.63;;;;;;;;;;516489;28;1290;-73
2023/02/15 00:04:15;;;;;;;37.33;30.80;;;;;;;;;;516147;28;1435;-72
2023/02/15 00:04:46;;;;;;;37.40;30.73;;;;;;;;;;519001;28;1437;-72
2023/02/15 00:05:01;;;;;;;38.67;31.35;;;;;;;;;;516912;28;1601;-73
2023/02/15 00:05:17;;;;;;;40.03;31.73;;;;;;;;;;515156;28;1184;-73
2023/02/15 00:05:32;;;;;;;40.30;31.88;;;;;;;;;;516741;28;1235;-73
2023/02/15 00:05:47;;;;;;;39.73;31.77;;;;;;;;;;520089;28;1336;-73
2023/02/15 00:06:04;;;;;;;39.90;31.25;;;;;;;;;;519412;28;1392;-73
2023/02/15 00:06:19;;;;;;;39.80;31.55;;;;;;;;;;519311;28;1320;-73
2023/02/15 00:06:35;;;;;;;39.17;31.90;;;;;;;;;;521266;28;1408;-73
2023/02/15 00:06:51;;;;;;;39.97;32.30;;;;;;;;;;520227;28;1539;-73
2023/02/15 00:07:06;;;;;;;41.65;32.63;;;;;;;;;;522885;28;1260;-73
2023/02/15 00:07:21;;;;;;;42.13;32.80;;;;;;;;;;519730;28;1477;-73
2023/02/15 00:07:37;;;;;;;41.10;32.55;;;;;;;;;;521606;28;1373;-72
2023/02/15 00:07:52;;;;;;;41.37;32.40;;;;;;;;;;520904;28;1377;-73
2023/02/15 00:08:07;;;;;;;41.87;32.57;;;;;;;;;;519695;28;1353;-73
2023/02/15 00:08:23;;;;;;;42.20;33.03;;;;;;;;;;515216;28;1203;-73
2023/02/15 00:08:38;;;;;;;42.03;32.73;;;;;;;;;;521551;28;1467;-73
2023/02/15 00:08:54;;;;;;;39.30;31.48;;;;;;;;;;520364;28;1166;-73
2023/02/15 00:09:10;;;;;;;38.55;31.55;;;;;;;;;;517751;28;1326;-73
2023/02/15 00:09:26;;;;;;;40.20;32.53;;;;;;;;;;518851;28;1472;-73
2023/02/15 00:09:41;;;;;;;39.30;31.90;;;;;;;;;;521191;28;1374;-73
2023/02/15 00:09:57;;;;;;;39.22;31.40;;;;;;;;;;522283;28;1181;-73
2023/02/15 00:10:12;;;;;;;39.83;31.23;;;;;;;;;;521871;28;1346;-73
2023/02/15 00:10:27;;;;;;;39.25;31.50;;;;;;;;;;517845;28;1373;-73
2023/02/15 00:10:43;;;;;;;41.40;32.90;;;;;;;;;;517770;28;1213;-72
2023/02/15 00:11:12;;;;;;;44.60;34.53;;;;;;;;;;518279;28;1274;-72
2023/02/15 00:11:39;;;;;;;43.45;33.03;;;;;;;;;;516977;28;1381;-73
2023/02/15 00:11:54;;;;;;;41.10;32.08;;;;;;;;;;518776;28;1469;-72
2023/02/15 00:12:10;;;;;;;39.20;31.30;;;;;;;;;;517422;28;1281;-73
2023/02/15 00:12:25;;;;;;;39.00;31.33;;;;;;;;;;516679;28;1330;-74
2023/02/15 00:12:40;;;;;;;39.38;31.52;;;;;;;;;;518540;28;1365;-73
2023/02/15 00:12:56;;;;;;;40.00;31.83;;;;;;;;;;519429;28;1315;-73
2023/02/15 00:13:11;;;;;;;39.75;31.80;;;;;;;;;;519069;28;1259;-72
2023/02/15 00:13:26;;;;;;;39.80;32.00;;;;;;;;;;519576;28;1211;-72
2023/02/15 00:13:42;;;;;;;41.67;32.53;;;;;;;;;;520977;28;1382;-73
2023/02/15 00:13:58;;;;;;;41.53;32.22;;;;;;;;;;519313;28;1201;-73
2023/02/15 00:14:19;;;;;;;40.63;32.28;;;;;;;;;;518516;28;1499;-72
2023/02/15 00:14:35;;;;;;;42.33;33.83;;;;;;;;;;516299;28;1388;-73
2023/02/15 00:14:50;;;;;;;41.65;33.50;;;;;;;;;;520042;28;1203;-73
2023/02/15 00:15:06;;;;;;;41.37;32.80;;;;;;;;;;520049;28;1233;-73
2023/02/15 00:15:21;;;;;;;42.63;33.13;;;;;;;;;;518319;28;1082;-72
2023/02/15 00:15:36;;;;;;;41.63;32.70;;;;;;;;;;517688;28;1527;-72
2023/02/15 00:15:52;;;;;;;40.77;32.20;;;;;;;;;;519832;28;1260;-72
2023/02/15 00:16:10;;;;;;;40.53;31.85;;;;;;;;;;517867;28;1343;-72
2023/02/15 00:16:25;;;;;;;40.08;31.83;;;;;;;;;;518523;28;1588;-73
2023/02/15 00:16:42;;;;;;;39.87;31.77;;;;;;;;;;520254;28;1669;-73
2023/02/15 00:16:59;;;;;;;40.78;32.47;;;;;;;;;;516460;28;1485;-72
2023/02/15 00:17:14;;;;;;;40.65;32.95;;;;;;;;;;518407;28;1594;-72
2023/02/15 00:17:30;;;;;;;39.70;32.28;;;;;;;;;;520157;28;1469;-73
2023/02/15 00:17:45;;;;;;;40.63;32.17;;;;;;;;;;519265;28;1506;-72
2023/02/15 00:18:00;;;;;;;40.90;32.50;;;;;;;;;;515662;28;1296;-73
2023/02/15 00:18:16;;;;;;;41.50;32.90;;;;;;;;;;515317;28;1401;-73
2023/02/15 00:18:31;;;;;;;41.53;32.77;;;;;;;;;;517495;28;1312;-74
2023/02/15 00:18:47;;;;;;;40.67;32.47;;;;;;;;;;519715;28;1374;-72
2023/02/15 00:19:03;;;;;;;40.30;31.63;;;;;;;;;;520058;28;1243;-73
2023/02/15 00:19:20;;;;;;;39.83;31.65;;;;;;;;;;519887;28;1047;-73
2023/02/15 00:19:35;;;;;;;40.63;32.72;;;;;;;;;;518812;28;1275;-73
2023/02/15 00:19:51;;;;;;;40.03;32.73;;;;;;;;;;520792;28;1285;-73
2023/02/15 00:20:07;;;;;;;40.23;32.30;;;;;;;;;;517584;28;1473;-73
2023/02/15 00:20:22;;;;;;;41.58;32.17;;;;;;;;;;518692;28;1280;-73
2023/02/15 00:20:37;;;;;;;41.15;31.67;;;;;;;;;;521347;28;1234;-73
2023/02/15 00:20:53;;;;;;;39.50;31.40;;;;;;;;;;516800;28;1141;-73
2023/02/15 00:21:09;;;;;;;39.77;31.90;;;;;;;;;;520080;28;1215;-73
2023/02/15 00:21:25;;;;;;;39.60;31.67;;;;;;;;;;518486;28;1264;-72
2023/02/15 00:21:40;;;;;;;39.20;31.43;;;;;;;;;;517728;28;1316;-73
2023/02/15 00:21:56;;;;;;;37.53;30.17;;;;;;;;;;519668;28;1513;-73
2023/02/15 00:22:11;;;;;;;35.65;29.13;;;;;;;;;;517996;28;1148;-74
2023/02/15 00:22:26;;;;;;;35.83;29.77;;;;;;;;;;515955;28;1204;-73
2023/02/15 00:22:42;;;;;;;37.27;30.70;;;;;;;;;;515466;28;1206;-73
2023/02/15 00:22:58;;;;;;;37.72;30.95;;;;;;;;;;517811;28;1203;-73
2023/02/15 00:23:14;;;;;;;37.13;30.45;;;;;;;;;;517200;28;1344;-73
2023/02/15 00:23:29;;;;;;;36.80;30.13;;;;;;;;;;516213;28;1327;-73
2023/02/15 00:23:44;;;;;;;37.80;30.40;;;;;;;;;;515484;28;1228;-73
2023/02/15 00:24:02;;;;;;;38.87;30.83;;;;;;;;;;517861;28;1297;-73
2023/02/15 00:24:19;;;;;;;38.63;30.98;;;;;;;;;;518245;28;1409;-73
2023/02/15 00:24:34;;;;;;;38.00;30.98;;;;;;;;;;520094;28;1345;-73
2023/02/15 00:24:49;;;;;;;38.50;31.40;;;;;;;;;;521372;28;1120;-72
2023/02/15 00:25:05;;;;;;;38.45;31.30;;;;;;;;;;518966;28;1381;-73
2023/02/15 00:25:20;;;;;;;38.40;31.27;;;;;;;;;;518149;28;1401;-73
2023/02/15 00:25:35;;;;;;;40.13;32.23;;;;;;;;;;518313;28;1236;-73
2023/02/15 00:25:51;;;;;;;40.05;31.90;;;;;;;;;;514580;28;1313;-73
2023/02/15 00:26:09;;;;;;;38.37;30.53;;;;;;;;;;517678;28;1354;-73
2023/02/15 00:26:25;;;;;;;40.63;32.10;;;;;;;;;;519940;28;1524;-73
2023/02/15 00:26:41;;;;;;;41.92;32.63;;;;;;;;;;517710;28;1296;-74
2023/02/15 00:26:57;;;;;;;41.35;31.92;;;;;;;;;;516846;28;1469;-74
2023/02/15 00:27:12;;;;;;;39.95;31.63;;;;;;;;;;518752;28;1244;-73
2023/02/15 00:27:27;;;;;;;37.67;30.77;;;;;;;;;;516703;28;1369;-75
2023/02/15 00:27:43;;;;;;;37.20;30.73;;;;;;;;;;518303;28;1296;-73
2023/02/15 00:27:59;;;;;;;36.80;31.10;;;;;;;;;;515750;28;1200;-73
2023/02/15 00:28:15;;;;;;;36.70;30.95;;;;;;;;;;516338;28;1372;-74
2023/02/15 00:28:31;;;;;;;36.78;30.52;;;;;;;;;;517379;28;1377;-73
2023/02/15 00:28:46;;;;;;;34.87;29.40;;;;;;;;;;519673;28;1495;-73
2023/02/15 00:29:02;;;;;;;35.95;29.95;;;;;;;;;;519311;28;1230;-73
2023/02/15 00:29:18;;;;;;;38.00;30.87;;;;;;;;;;518390;28;1332;-73
2023/02/15 00:29:34;;;;;;;37.13;30.50;;;;;;;;;;514900;28;1287;-73
2023/02/15 00:29:49;;;;;;;36.33;30.07;;;;;;;;;;517446;28;1271;-73
2023/02/15 00:30:05;;;;;;;35.72;29.88;;;;;;;;;;515475;28;1378;-73
2023/02/15 00:30:21;;;;;;;35.55;29.98;;;;;;;;;;515731;28;1279;-72
2023/02/15 00:30:36;;;;;;;35.57;29.93;;;;;;;;;;518938;28;1263;-73
2023/02/15 00:30:51;;;;;;;35.33;29.95;;;;;;;;;;519199;28;1511;-73
2023/02/15 00:31:09;;;;;;;36.23;30.60;;;;;;;;;;520832;28;1220;-73
2023/02/15 00:31:25;;;;;;;35.55;30.10;;;;;;;;;;517186;28;1396;-74
2023/02/15 00:31:40;;;;;;;35.10;29.80;;;;;;;;;;518464;28;1264;-73
2023/02/15 00:31:55;;;;;;;36.03;30.47;;;;;;;;;;517519;28;1118;-74
2023/02/15 00:32:11;;;;;;;35.67;30.23;;;;;;;;;;512551;28;1261;-74
2023/02/15 00:32:26;;;;;;;35.13;30.07;;;;;;;;;;515886;28;1322;-74
2023/02/15 00:32:41;;;;;;;35.95;29.85;;;;;;;;;;515932;28;1245;-73
2023/02/15 00:32:56;;;;;;;35.33;29.57;;;;;;;;;;517154;28;1353;-74
2023/02/15 00:33:12;;;;;;;34.53;29.50;;;;;;;;;;514696;28;1228;-72
2023/02/15 00:33:27;;;;;;;35.13;29.73;;;;;;;;;;518148;28;1234;-73
2023/02/15 00:33:43;;;;;;;35.67;30.03;;;;;;;;;;517667;28;1338;-72
2023/02/15 00:34:03;;;;;;;35.80;30.00;;;;;;;;;;514112;28;1407;-72
2023/02/15 00:34:24;;;;;;;35.35;29.75;;;;;;;;;;517730;28;1915;-72
2023/02/15 00:34:39;;;;;;;33.10;28.50;;;;;;;;;;517907;28;1649;-72
2023/02/15 00:34:54;;;;;;;32.37;28.23;;;;;;;;;;520033;28;1403;-72
2023/02/15 00:35:10;;;;;;;31.48;28.05;;;;;;;;;;520303;28;1196;-73
2023/02/15 00:35:25;;;;;;;32.07;28.00;;;;;;;;;;519171;28;1488;-72
2023/02/15 00:35:41;;;;;;;32.95;27.67;;;;;;;;;;520575;28;1211;-72
2023/02/15 00:35:57;;;;;;;32.53;27.87;;;;;;;;;;520608;28;1193;-72
2023/02/15 00:36:13;;;;;;;33.72;28.73;;;;;;;;;;519446;28;1393;-73
2023/02/15 00:36:28;;;;;;;33.77;28.60;;;;;;;;;;520111;28;1389;-73
2023/02/15 00:36:45;;;;;;;32.70;27.92;;;;;;;;;;518860;28;1252;-72
2023/02/15 00:37:00;;;;;;;32.97;27.85;;;;;;;;;;519965;28;1446;-72
2023/02/15 00:37:15;;;;;;;34.10;28.20;;;;;;;;;;517947;28;1402;-72
2023/02/15 00:37:30;;;;;;;34.35;28.42;;;;;;;;;;518483;28;1355;-72
2023/02/15 00:37:46;;;;;;;34.00;28.63;;;;;;;;;;518938;28;1237;-72
2023/02/15 00:38:01;;;;;;;33.13;27.97;;;;;;;;;;520735;28;1263;-74
2023/02/15 00:38:16;;;;;;;32.95;27.98;;;;;;;;;;521369;28;1377;-74
2023/02/15 00:38:33;;;;;;;32.53;28.10;;;;;;;;;;518778;28;1312;-73
2023/02/15 00:38:49;;;;;;;31.80;27.60;;;;;;;;;;522454;28;1374;-74
2023/02/15 00:39:04;;;;;;;33.33;28.27;;;;;;;;;;520331;28;1321;-73
2023/02/15 00:39:20;;;;;;;33.53;28.50;;;;;;;;;;516860;28;1212;-74
2023/02/15 00:39:35;;;;;;;32.17;27.50;;;;;;;;;;518422;28;1434;-73
2023/02/15 00:39:51;;;;;;;31.20;27.00;;;;;;;;;;519574;28;1203;-74
2023/02/15 00:40:06;;;;;;;30.30;26.67;;;;;;;;;;520059;28;1277;-74
2023/02/15 00:40:22;;;;;;;30.42;26.88;;;;;;;;;;519382;28;1218;-73
2023/02/15 00:40:37;;;;;;;30.23;26.92;;;;;;;;;;522606;28;1232;-74
2023/02/15 00:40:58;;;;;;;31.07;27.33;;;;;;;;;;519739;28;1218;-73
2023/02/15 00:41:13;;;;;;;31.70;27.73;;;;;;;;;;521209;28;1349;-74
2023/02/15 00:41:28;;;;;;;30.87;27.30;;;;;;;;;;522565;28;1520;-73
2023/02/15 00:41:45;;;;;;;31.40;27.30;;;;;;;;;;521579;28;1275;-74
2023/02/15 00:42:00;;;;;;;33.25;28.65;;;;;;;;;;520605;28;1595;-74
2023/02/15 00:42:16;;;;;;;34.43;29.10;;;;;;;;;;521988;28;990;-74
2023/02/15 00:42:31;;;;;;;34.27;29.07;;;;;;;;;;519576;28;1216;-74
2023/02/15 00:42:46;;;;;;;33.50;28.70;;;;;;;;;;518093;28;1352;-73
2023/02/15 00:43:01;;;;;;;34.43;28.93;;;;;;;;;;516017;28;1216;-73
2023/02/15 00:43:17;;;;;;;34.00;28.87;;;;;;;;;;516614;28;1405;-74
2023/02/15 00:43:33;;;;;;;32.13;27.70;;;;;;;;;;518319;28;1276;-73
2023/02/15 00:43:48;;;;;;;31.90;27.45;;;;;;;;;;516548;28;1221;-73
2023/02/15 00:44:04;;;;;;;32.27;27.63;;;;;;;;;;518996;28;1558;-73
2023/02/15 00:44:19;;;;;;;31.83;27.45;;;;;;;;;;518254;28;1589;-74
2023/02/15 00:44:35;;;;;;;31.03;26.83;;;;;;;;;;522074;28;1365;-74
2023/02/15 00:44:50;;;;;;;31.08;26.33;;;;;;;;;;519200;28;1695;-73
2023/02/15 00:45:05;;;;;;;30.77;26.40;;;;;;;;;;518596;28;1158;-73
2023/02/15 00:45:21;;;;;;;30.27;26.70;;;;;;;;;;517236;28;1564;-74
2023/02/15 00:45:36;;;;;;;30.17;26.57;;;;;;;;;;518645;28;1248;-73
2023/02/15 00:45:52;;;;;;;30.48;26.60;;;;;;;;;;514390;28;1368;-74
2023/02/15 00:46:07;;;;;;;31.43;27.07;;;;;;;;;;513431;28;1384;-73
2023/02/15 00:46:23;;;;;;;32.33;27.90;;;;;;;;;;516646;28;1387;-73
2023/02/15 00:46:38;;;;;;;33.00;28.07;;;;;;;;;;515068;28;1172;-73
2023/02/15 00:46:53;;;;;;;32.13;27.40;;;;;;;;;;513989;28;1204;-74
2023/02/15 00:47:09;;;;;;;31.17;26.57;;;;;;;;;;512279;28;1341;-75
2023/02/15 00:47:25;;;;;;;30.40;25.87;;;;;;;;;;515983;28;1181;-74
2023/02/15 00:47:40;;;;;;;30.20;26.30;;;;;;;;;;518130;28;1199;-74
2023/02/15 00:47:55;;;;;;;29.90;26.60;;;;;;;;;;516342;28;1270;-74
2023/02/15 00:48:10;;;;;;;29.58;26.08;;;;;;;;;;519679;28;1224;-73
2023/02/15 00:48:26;;;;;;;29.33;25.53;;;;;;;;;;517701;28;1195;-73
2023/02/15 00:48:42;;;;;;;28.83;25.67;;;;;;;;;;518687;28;1405;-73
2023/02/15 00:48:57;;;;;;;28.75;25.65;;;;;;;;;;519567;28;1247;-74
2023/02/15 00:49:13;;;;;;;28.90;25.67;;;;;;;;;;521203;28;1185;-74
2023/02/15 00:49:28;;;;;;;29.83;26.17;;;;;;;;;;522492;28;1212;-74
2023/02/15 00:49:43;;;;;;;29.98;25.60;;;;;;;;;;519528;28;1487;-73
2023/02/15 00:49:59;;;;;;;30.20;25.77;;;;;;;;;;519112;28;1422;-73
2023/02/15 00:50:14;;;;;;;30.53;26.17;;;;;;;;;;520038;28;1035;-74
2023/02/15 00:50:29;;;;;;;30.08;26.08;;;;;;;;;;522176;28;1338;-74
2023/02/15 00:50:46;;;;;;;29.90;26.23;;;;;;;;;;520410;28;1297;-74
2023/02/15 00:51:01;;;;;;;29.98;26.38;;;;;;;;;;519434;28;1481;-73
2023/02/15 00:51:17;;;;;;;30.40;26.50;;;;;;;;;;518596;28;1343;-73
2023/02/15 00:51:32;;;;;;;31.73;27.23;;;;;;;;;;521740;28;1176;-73
2023/02/15 00:51:47;;;;;;;31.83;27.42;;;;;;;;;;520007;28;1496;-74
2023/02/15 00:52:03;;;;;;;31.53;27.10;;;;;;;;;;518041;28;1341;-74
2023/02/15 00:52:18;;;;;;;30.75;26.58;;;;;;;;;;517764;28;1196;-74
2023/02/15 00:52:33;;;;;;;29.73;25.90;;;;;;;;;;516861;28;1196;-73
2023/02/15 00:52:49;;;;;;;29.90;25.87;;;;;;;;;;516751;28;1216;-74
2023/02/15 00:53:04;;;;;;;30.15;26.13;;;;;;;;;;519342;28;1161;-73
2023/02/15 00:53:20;;;;;;;30.90;26.57;;;;;;;;;;519470;28;1252;-74
2023/02/15 00:53:35;;;;;;;30.63;26.45;;;;;;;;;;520065;28;1394;-74
2023/02/15 00:53:51;;;;;;;29.97;26.43;;;;;;;;;;519002;28;1271;-74
2023/02/15 00:54:06;;;;;;;30.50;26.52;;;;;;;;;;517044;28;1212;-74
2023/02/15 00:54:22;;;;;;;30.37;26.20;;;;;;;;;;514431;28;1948;-74
2023/02/15 00:54:38;;;;;;;29.55;25.77;;;;;;;;;;518290;28;1383;-74
2023/02/15 00:54:53;;;;;;;28.73;25.20;;;;;;;;;;519509;28;1947;-74
2023/02/15 00:55:09;;;;;;;28.42;25.15;;;;;;;;;;516464;28;1249;-74
2023/02/15 00:55:24;;;;;;;29.67;25.77;;;;;;;;;;518272;28;1250;-74
2023/02/15 00:55:40;;;;;;;31.07;26.23;;;;;;;;;;517071;28;1335;-73
2023/02/15 00:55:56;;;;;;;30.40;25.83;;;;;;;;;;519563;28;1464;-73
2023/02/15 00:56:12;;;;;;;30.30;25.90;;;;;;;;;;515900;28;1429;-74
2023/02/15 00:56:28;;;;;;;30.88;26.27;;;;;;;;;;515305;28;1488;-73
2023/02/15 00:56:43;;;;;;;29.98;25.70;;;;;;;;;;517095;28;1450;-73
2023/02/15 00:56:58;;;;;;;29.23;25.63;;;;;;;;;;517648;28;1211;-72
2023/02/15 00:57:14;;;;;;;29.00;25.75;;;;;;;;;;515786;28;1462;-72
2023/02/15 00:57:29;;;;;;;29.30;25.87;;;;;;;;;;517707;28;1385;-73
2023/02/15 00:57:45;;;;;;;30.13;26.10;;;;;;;;;;516635;28;1184;-72
2023/02/15 00:58:00;;;;;;;30.73;25.92;;;;;;;;;;518115;28;1378;-72
2023/02/15 00:58:16;;;;;;;30.13;25.47;;;;;;;;;;516134;28;1180;-73
2023/02/15 00:58:31;;;;;;;29.38;25.55;;;;;;;;;;514696;28;1406;-73
2023/02/15 00:58:47;;;;;;;29.23;25.70;;;;;;;;;;518335;28;1058;-73
2023/02/15 00:59:02;;;;;;;30.00;26.27;;;;;;;;;;518468;28;1196;-72
2023/02/15 00:59:17;;;;;;;30.15;26.10;;;;;;;;;;522222;28;1457;-72
2023/02/15 00:59:33;;;;;;;28.93;25.30;;;;;;;;;;519233;28;1250;-74
2023/02/15 00:59:48;;;;;;;28.37;24.87;;;;;;;;;;521927;28;1688;-73
2023/02/15 01:00:04;;;;;;;28.08;24.52;;;;;;;;;;521713;28;1081;-73
2023/02/15 01:00:19;;;;;;;28.20;24.98;;;;;;;;;;521713;28;1418;-72
2023/02/15 01:00:35;;;;;;;28.53;25.43;;;;;;;;;;520870;28;1423;-73
2023/02/15 01:00:51;;;;;;;28.33;25.23;;;;;;;;;;520754;28;1290;-73
2023/02/15 01:01:15;;;;;;;28.30;24.98;;;;;;;;;;519355;28;1242;-74
2023/02/15 01:01:30;;;;;;;27.13;24.15;;;;;;;;;;518811;28;1429;-72
2023/02/15 01:01:46;;;;;;;26.87;23.97;;;;;;;;;;520374;28;1160;-73
2023/02/15 01:02:01;;;;;;;27.20;23.97;;;;;;;;;;520419;28;1365;-73
2023/02/15 01:02:16;;;;;;;27.40;23.83;;;;;;;;;;518246;28;1296;-73
2023/02/15 01:02:32;;;;;;;27.27;24.03;;;;;;;;;;521560;28;1332;-72
2023/02/15 01:02:47;;;;;;;28.20;24.73;;;;;;;;;;520411;28;1295;-74
2023/02/15 01:03:03;;;;;;;28.77;24.87;;;;;;;;;;519536;28;1381;-73
2023/02/15 01:03:20;;;;;;;28.52;24.38;;;;;;;;;;515040;28;1232;-73
2023/02/15 01:03:35;;;;;;;28.15;24.75;;;;;;;;;;517465;28;1593;-73
2023/02/15 01:03:51;;;;;;;29.57;25.23;;;;;;;;;;520996;28;1227;-73
2023/02/15 01:04:06;;;;;;;29.33;25.20;;;;;;;;;;520317;28;1094;-73
2023/02/15 01:04:21;;;;;;;28.77;24.90;;;;;;;;;;520117;28;1277;-74
2023/02/15 01:04:36;;;;;;;29.00;25.10;;;;;;;;;;520315;28;1153;-73
2023/02/15 01:04:52;;;;;;;28.85;25.27;;;;;;;;;;517381;28;1379;-73
2023/02/15 01:05:07;;;;;;;29.40;25.33;;;;;;;;;;517859;28;1408;-73
2023/02/15 01:05:23;;;;;;;29.77;25.45;;;;;;;;;;519925;28;1646;-72
2023/02/15 01:05:38;;;;;;;29.27;25.40;;;;;;;;;;516553;28;1520;-73
2023/02/15 01:05:53;;;;;;;27.90;24.83;;;;;;;;;;518199;28;1361;-73
2023/02/15 01:06:10;;;;;;;27.37;24.37;;;;;;;;;;517773;28;1208;-74
2023/02/15 01:06:25;;;;;;;28.88;25.20;;;;;;;;;;518031;28;1274;-73
2023/02/15 01:06:40;;;;;;;28.27;24.88;;;;;;;;;;517517;28;1339;-73
2023/02/15 01:06:56;;;;;;;27.80;24.40;;;;;;;;;;517992;28;1420;-73
2023/02/15 01:07:11;;;;;;;28.70;24.43;;;;;;;;;;517671;28;1337;-74
2023/02/15 01:07:26;;;;;;;27.80;23.70;;;;;;;;;;518839;28;1256;-74
2023/02/15 01:07:42;;;;;;;26.37;23.50;;;;;;;;;;519825;28;1225;-73
2023/02/15 01:07:58;;;;;;;27.30;24.30;;;;;;;;;;520493;28;1253;-73
2023/02/15 01:08:13;;;;;;;27.02;23.85;;;;;;;;;;517389;28;1372;-73
2023/02/15 01:08:29;;;;;;;26.42;23.45;;;;;;;;;;517597;28;1196;-73
2023/02/15 01:08:45;;;;;;;27.40;24.00;;;;;;;;;;516807;28;1201;-73
2023/02/15 01:09:00;;;;;;;28.42;24.65;;;;;;;;;;518951;28;1264;-74
2023/02/15 01:09:16;;;;;;;29.23;25.07;;;;;;;;;;517021;28;1192;-74
2023/02/15 01:09:31;;;;;;;27.73;24.58;;;;;;;;;;517843;28;1359;-73
2023/02/15 01:09:46;;;;;;;27.57;24.57;;;;;;;;;;519969;28;1295;-73
2023/02/15 01:10:02;;;;;;;27.37;23.93;;;;;;;;;;516429;28;1244;-74
2023/02/15 01:10:17;;;;;;;26.55;23.25;;;;;;;;;;517833;28;1387;-73
2023/02/15 01:10:34;;;;;;;27.23;23.73;;;;;;;;;;515541;28;1188;-73
2023/02/15 01:10:49;;;;;;;27.42;23.92;;;;;;;;;;515496;28;1413;-74
2023/02/15 01:11:07;;;;;;;27.60;24.20;;;;;;;;;;515947;28;1322;-72
2023/02/15 01:11:23;;;;;;;29.20;25.17;;;;;;;;;;517979;28;1433;-72
2023/02/15 01:11:38;;;;;;;28.85;24.98;;;;;;;;;;517271;28;1264;-73
2023/02/15 01:11:53;;;;;;;26.47;23.53;;;;;;;;;;516528;28;1394;-73
2023/02/15 01:12:09;;;;;;;26.43;23.17;;;;;;;;;;517917;28;1187;-72
2023/02/15 01:12:24;;;;;;;27.52;24.10;;;;;;;;;;513977;28;1324;-73
2023/02/15 01:12:39;;;;;;;27.23;24.10;;;;;;;;;;515606;28;1327;-73
2023/02/15 01:12:55;;;;;;;26.77;23.87;;;;;;;;;;517871;28;1319;-72
2023/02/15 01:13:11;;;;;;;27.25;24.25;;;;;;;;;;516999;28;999;-73
2023/02/15 01:13:26;;;;;;;28.15;24.52;;;;;;;;;;518627;28;1638;-73
2023/02/15 01:13:41;;;;;;;27.83;24.30;;;;;;;;;;515887;28;1464;-72
2023/02/15 01:13:58;;;;;;;27.45;24.30;;;;;;;;;;515798;28;1236;-72
2023/02/15 01:14:14;;;;;;;28.15;24.85;;;;;;;;;;514458;28;1249;-74
2023/02/15 01:14:29;;;;;;;28.80;25.08;;;;;;;;;;513790;28;1918;-73
2023/02/15 01:14:45;;;;;;;28.08;24.58;;;;;;;;;;515266;28;1268;-72
2023/02/15 01:15:00;;;;;;;27.17;23.87;;;;;;;;;;514991;28;1367;-73
2023/02/15 01:15:15;;;;;;;27.80;23.63;;;;;;;;;;517778;28;1399;-72
2023/02/15 01:15:31;;;;;;;26.67;23.10;;;;;;;;;;518673;28;1130;-73
2023/02/15 01:15:53;;;;;;;26.37;23.47;;;;;;;;;;517806;28;1546;-72
2023/02/15 01:16:08;;;;;;;26.38;23.50;;;;;;;;;;517396;28;1324;-72
2023/02/15 01:16:26;;;;;;;26.00;23.20;;;;;;;;;;518300;28;1212;-73
2023/02/15 01:16:42;;;;;;;26.83;23.80;;;;;;;;;;520661;28;1465;-73
2023/02/15 01:16:57;;;;;;;26.70;23.57;;;;;;;;;;517924;28;1242;-73
2023/02/15 01:17:13;;;;;;;26.90;23.67;;;;;;;;;;517955;28;1383;-73
2023/02/15 01:17:28;;;;;;;26.90;23.48;;;;;;;;;;518004;28;1295;-73
2023/02/15 01:17:50;;;;;;;27.20;23.52;;;;;;;;;;517852;28;1351;-73
2023/02/15 01:18:06;;;;;;;26.85;23.50;;;;;;;;;;514581;28;1076;-74
2023/02/15 01:18:22;;;;;;;26.83;23.50;;;;;;;;;;517025;28;1378;-73
2023/02/15 01:18:37;;;;;;;26.83;23.55;;;;;;;;;;517709;28;1403;-73
2023/02/15 01:18:54;;;;;;;26.83;23.52;;;;;;;;;;520371;28;1196;-73
2023/02/15 01:19:09;;;;;;;27.75;23.90;;;;;;;;;;519850;28;1511;-74
2023/02/15 01:19:25;;;;;;;27.67;23.53;;;;;;;;;;518084;28;1242;-73
2023/02/15 01:19:40;;;;;;;27.20;23.50;;;;;;;;;;519359;28;1330;-73
2023/02/15 01:19:55;;;;;;;27.02;24.08;;;;;;;;;;520701;28;1271;-73
2023/02/15 01:20:11;;;;;;;26.77;23.87;;;;;;;;;;519848;28;1145;-73
2023/02/15 01:20:28;;;;;;;27.70;24.02;;;;;;;;;;519141;28;1172;-73
2023/02/15 01:20:43;;;;;;;28.40;24.45;;;;;;;;;;517113;28;1568;-74
2023/02/15 01:20:59;;;;;;;27.43;23.80;;;;;;;;;;516340;28;1359;-72
2023/02/15 01:21:19;;;;;;;27.33;23.58;;;;;;;;;;518283;28;1188;-72
2023/02/15 01:21:34;;;;;;;28.35;24.35;;;;;;;;;;516678;28;1327;-73
2023/02/15 01:21:49;;;;;;;28.40;24.40;;;;;;;;;;516147;28;1292;-73
2023/02/15 01:22:05;;;;;;;28.23;24.10;;;;;;;;;;517775;28;1489;-73
2023/02/15 01:22:20;;;;;;;28.23;24.30;;;;;;;;;;519509;28;1369;-73
2023/02/15 01:22:35;;;;;;;27.60;24.13;;;;;;;;;;517632;28;1290;-74
2023/02/15 01:22:52;;;;;;;26.77;23.73;;;;;;;;;;516928;28;1198;-73
2023/02/15 01:23:07;;;;;;;27.52;24.23;;;;;;;;;;517935;28;1662;-73
2023/02/15 01:23:23;;;;;;;27.88;24.27;;;;;;;;;;522302;28;1296;-73
2023/02/15 01:23:38;;;;;;;27.87;24.00;;;;;;;;;;518194;28;1202;-73
2023/02/15 01:23:53;;;;;;;27.43;23.63;;;;;;;;;;516816;28;1106;-73
2023/02/15 01:24:15;;;;;;;26.70;23.67;;;;;;;;;;517757;28;1216;-72
2023/02/15 01:24:30;;;;;;;27.30;24.10;;;;;;;;;;519016;28;1352;-73
2023/02/15 01:24:48;;;;;;;26.97;23.77;;;;;;;;;;520045;28;1200;-72
2023/02/15 01:25:04;;;;;;;26.90;23.40;;;;;;;;;;520186;28;1449;-74
2023/02/15 01:25:21;;;;;;;27.52;23.65;;;;;;;;;;518690;28;1375;-74
2023/02/15 01:25:36;;;;;;;28.25;24.25;;;;;;;;;;517576;28;1414;-74
2023/02/15 01:25:52;;;;;;;27.65;24.40;;;;;;;;;;514996;28;1353;-73
2023/02/15 01:26:08;;;;;;;26.83;23.93;;;;;;;;;;511622;28;1201;-74
2023/02/15 01:26:23;;;;;;;28.63;24.08;;;;;;;;;;513658;28;1256;-72
2023/02/15 01:26:38;;;;;;;30.10;25.00;;;;;;;;;;513471;28;1430;-74
2023/02/15 01:26:53;;;;;;;29.83;25.45;;;;;;;;;;514587;28;1359;-73
2023/02/15 01:27:09;;;;;;;28.40;24.57;;;;;;;;;;518646;28;1201;-74
2023/02/15 01:27:24;;;;;;;27.98;24.08;;;;;;;;;;518957;28;1397;-72
2023/02/15 01:27:40;;;;;;;29.27;24.73;;;;;;;;;;520917;28;1275;-74
2023/02/15 01:27:55;;;;;;;28.53;24.50;;;;;;;;;;520009;28;1200;-73
2023/02/15 01:28:11;;;;;;;28.33;24.50;;;;;;;;;;517443;28;1587;-74
2023/02/15 01:28:26;;;;;;;29.73;25.33;;;;;;;;;;518538;28;1493;-73
2023/02/15 01:28:42;;;;;;;30.23;26.02;;;;;;;;;;514292;28;1238;-73
2023/02/15 01:28:57;;;;;;;30.07;25.97;;;;;;;;;;517360;28;1421;-73
2023/02/15 01:29:12;;;;;;;29.65;25.65;;;;;;;;;;519793;28;1497;-73
2023/02/15 01:29:28;;;;;;;29.93;25.80;;;;;;;;;;518793;28;1239;-73
2023/02/15 01:29:43;;;;;;;30.45;25.50;;;;;;;;;;522026;28;1243;-73
2023/02/15 01:29:59;;;;;;;30.60;25.27;;;;;;;;;;518983;28;1137;-73
2023/02/15 01:30:15;;;;;;;30.38;25.25;;;;;;;;;;518584;28;1123;-73
2023/02/15 01:30:31;;;;;;;30.55;25.80;;;;;;;;;;519682;28;1204;-75
2023/02/15 01:30:46;;;;;;;30.50;25.90;;;;;;;;;;520361;28;1324;-73
2023/02/15 01:31:09;;;;;;;29.03;24.93;;;;;;;;;;520822;28;1189;-73
2023/02/15 01:31:24;;;;;;;28.42;24.80;;;;;;;;;;518407;28;1401;-74
2023/02/15 01:31:40;;;;;;;27.92;24.42;;;;;;;;;;521370;28;1192;-73
2023/02/15 01:31:55;;;;;;;28.47;24.57;;;;;;;;;;522558;28;1195;-74
2023/02/15 01:32:10;;;;;;;28.37;23.93;;;;;;;;;;517174;28;1345;-73
2023/02/15 01:32:26;;;;;;;28.30;24.20;;;;;;;;;;515880;28;1212;-73
2023/02/15 01:32:42;;;;;;;27.20;23.87;;;;;;;;;;515276;28;1259;-73
2023/02/15 01:32:58;;;;;;;26.67;23.77;;;;;;;;;;515786;28;1327;-73
2023/02/15 01:33:17;;;;;;;27.93;24.47;;;;;;;;;;515953;28;1323;-74
2023/02/15 01:33:32;;;;;;;27.00;23.63;;;;;;;;;;515244;28;1068;-73
2023/02/15 01:33:49;;;;;;;27.73;24.08;;;;;;;;;;517434;28;1303;-74
2023/02/15 01:34:04;;;;;;;28.40;24.77;;;;;;;;;;516826;28;1374;-74
2023/02/15 01:34:19;;;;;;;27.43;24.30;;;;;;;;;;517445;28;1355;-74
2023/02/15 01:34:35;;;;;;;27.50;23.88;;;;;;;;;;520030;28;1981;-73
2023/02/15 01:34:50;;;;;;;28.03;23.93;;;;;;;;;;519027;28;1232;-73
2023/02/15 01:35:06;;;;;;;27.33;23.70;;;;;;;;;;519758;28;1321;-73
2023/02/15 01:35:21;;;;;;;26.77;23.27;;;;;;;;;;517743;28;1266;-73